Time;durP1;ratioP1;P1;durP2;ratioP2;P2;SDS_P1;SDS_P2;PMS_P1;PMS_P2;Temp;Humidity;BMP_temperature;BMP_pressure;BME280_temperature;BME280_humidity;BME280_pressure;Samples;Min_cycle;Max_cycle;Signal;HPM_P1;HPM_P2
2022/07/15 00:00:19;;;;;;;5.47;1.17;;;13.00;75.30;;;;;;5008198;28;20042;-67
2022/07/15 00:02:45;;;;;;;7.20;1.40;;;13.10;75.40;;;;;;5005717;28;20518;-67
2022/07/15 00:05:11;;;;;;;7.63;0.90;;;13.10;75.40;;;;;;5007326;28;20437;-67
2022/07/15 00:07:37;;;;;;;5.37;1.20;;;13.20;75.60;;;;;;4986297;28;20200;-67
2022/07/15 00:10:18;;;;;;;6.57;1.07;;;13.20;75.90;;;;;;5007392;28;20571;-67
2022/07/15 00:12:53;;;;;;;6.60;1.53;;;13.20;75.90;;;;;;5007075;28;20303;-67
2022/07/15 00:15:24;;;;;;;4.78;1.00;;;13.30;76.10;;;;;;4995982;28;20726;-67
2022/07/15 00:17:51;;;;;;;5.43;0.93;;;13.30;76.70;;;;;;5007576;28;20065;-67
2022/07/15 00:20:18;;;;;;;6.40;1.23;;;13.30;76.50;;;;;;5007543;28;20340;-67
2022/07/15 00:22:44;;;;;;;6.83;1.00;;;13.40;76.30;;;;;;4989409;28;20292;-67
2022/07/15 00:25:11;;;;;;;7.13;1.33;;;13.40;76.60;;;;;;5006254;28;20285;-67
2022/07/15 00:27:53;;;;;;;5.17;1.47;;;13.50;76.50;;;;;;5007220;28;20584;-67
2022/07/15 00:30:20;;;;;;;7.50;1.30;;;13.50;76.50;;;;;;5003658;28;20335;-68
2022/07/15 00:32:46;;;;;;;4.77;1.03;;;13.50;76.60;;;;;;5006447;28;20439;-68
2022/07/15 00:35:12;;;;;;;5.87;1.13;;;13.60;77.20;;;;;;4973615;28;20292;-68
2022/07/15 00:37:38;;;;;;;7.53;0.97;;;13.60;77.40;;;;;;5000956;28;20100;-68
2022/07/15 00:40:04;;;;;;;6.63;1.40;;;13.60;77.10;;;;;;4974945;28;20041;-68
2022/07/15 00:42:44;;;;;;;4.00;0.63;;;13.60;77.30;;;;;;5007489;28;20580;-68
2022/07/15 00:45:13;;;;;;;11.83;1.50;;;13.70;77.30;;;;;;4989964;28;20284;-68
2022/07/15 00:47:40;;;;;;;6.37;1.17;;;13.70;77.10;;;;;;4989965;28;20777;-68
2022/07/15 00:50:06;;;;;;;6.93;0.97;;;13.70;77.00;;;;;;5002534;28;20280;-68
2022/07/15 00:52:34;;;;;;;7.43;1.30;;;13.70;76.90;;;;;;5006204;28;20289;-68
2022/07/15 00:55:01;;;;;;;7.80;1.07;;;13.60;77.00;;;;;;5006843;28;20801;-68
2022/07/15 00:57:28;;;;;;;6.33;1.10;;;13.60;77.00;;;;;;5005030;28;20638;-67
2022/07/15 00:59:54;;;;;;;3.83;0.87;;;13.50;77.40;;;;;;5003314;28;20273;-67
2022/07/15 01:02:20;;;;;;;6.63;0.77;;;13.50;77.40;;;;;;4990634;28;20343;-67
2022/07/15 01:04:48;;;;;;;5.33;1.10;;;13.40;77.60;;;;;;5003953;28;20336;-67
2022/07/15 01:07:13;;;;;;;5.97;0.77;;;13.30;77.50;;;;;;5001050;28;20900;-67
2022/07/15 01:09:39;;;;;;;5.47;1.10;;;13.30;77.80;;;;;;5006626;28;20376;-67
2022/07/15 01:12:05;;;;;;;5.33;0.83;;;13.20;77.40;;;;;;4990119;28;20494;-67
2022/07/15 01:14:31;;;;;;;7.30;1.20;;;13.10;77.50;;;;;;5005515;28;20081;-67
2022/07/15 01:16:57;;;;;;;4.30;0.70;;;13.10;77.90;;;;;;4973025;28;20355;-67
2022/07/15 01:19:22;;;;;;;10.50;1.23;;;13.00;77.80;;;;;;4974145;28;20052;-67
2022/07/15 01:21:48;;;;;;;7.27;0.90;;;12.90;77.70;;;;;;4981431;28;20509;-67
2022/07/15 01:24:14;;;;;;;4.47;0.90;;;12.80;77.70;;;;;;5006119;28;20042;-67
2022/07/15 01:26:40;;;;;;;4.90;1.13;;;12.80;78.00;;;;;;5006764;28;20137;-67
2022/07/15 01:29:06;;;;;;;7.43;1.00;;;12.70;78.00;;;;;;5005726;28;20045;-67
2022/07/15 01:31:31;;;;;;;4.87;1.20;;;12.70;78.10;;;;;;5006353;28;20289;-67
2022/07/15 01:33:57;;;;;;;5.60;0.60;;;12.60;78.10;;;;;;5000077;28;20042;-67
2022/07/15 01:36:23;;;;;;;5.27;0.80;;;12.60;77.90;;;;;;4988816;28;20038;-67
2022/07/15 01:38:49;;;;;;;6.40;0.90;;;12.60;77.90;;;;;;4984028;28;20387;-67
2022/07/15 01:41:15;;;;;;;5.37;0.90;;;12.50;77.60;;;;;;4973316;28;20038;-67
2022/07/15 01:43:41;;;;;;;5.60;1.40;;;12.40;77.70;;;;;;4989272;28;20280;-67
2022/07/15 01:46:07;;;;;;;7.07;1.17;;;12.30;77.80;;;;;;5003835;28;20806;-68
2022/07/15 01:51:16;;;;;;;5.10;0.80;;;12.20;77.80;;;;;;5002258;28;20058;-68
2022/07/15 01:53:42;;;;;;;7.07;0.90;;;12.10;77.90;;;;;;4998698;28;20665;-68
2022/07/15 01:56:08;;;;;;;5.83;1.03;;;12.00;77.80;;;;;;5003285;28;20073;-68
2022/07/15 01:58:34;;;;;;;7.07;0.70;;;11.90;78.20;;;;;;4970025;28;20125;-68
2022/07/15 02:00:59;;;;;;;4.90;1.03;;;11.80;78.10;;;;;;4998419;28;20112;-68
2022/07/15 02:03:26;;;;;;;3.97;0.60;;;11.70;78.30;;;;;;4988651;28;20058;-68
2022/07/15 02:05:52;;;;;;;5.70;0.98;;;11.60;78.70;;;;;;5002301;28;20238;-68
2022/07/15 02:08:17;;;;;;;3.90;0.70;;;11.60;78.40;;;;;;5005406;28;20103;-68
2022/07/15 02:10:43;;;;;;;5.47;0.60;;;11.50;78.30;;;;;;5006330;28;20490;-68
2022/07/15 02:13:11;;;;;;;5.70;0.60;;;11.40;78.30;;;;;;4988699;28;20053;-68
2022/07/15 02:15:38;;;;;;;4.05;0.80;;;11.30;78.30;;;;;;5004565;28;20125;-68
2022/07/15 02:18:04;;;;;;;7.68;1.15;;;11.30;78.50;;;;;;5004961;28;20103;-68
2022/07/15 02:20:30;;;;;;;6.95;1.15;;;11.20;78.60;;;;;;5001237;28;20042;-68
2022/07/15 02:23:01;;;;;;;6.55;0.70;;;11.10;78.80;;;;;;4988700;28;20050;-68
2022/07/15 02:25:30;;;;;;;5.32;0.68;;;11.00;78.90;;;;;;4999970;28;20053;-68
2022/07/15 02:27:57;;;;;;;4.28;0.70;;;11.00;79.00;;;;;;5000484;28;20552;-68
2022/07/15 02:30:28;;;;;;;1.88;0.50;;;10.90;79.00;;;;;;5005197;28;20042;-68
2022/07/15 02:32:55;;;;;;;5.22;0.68;;;10.90;79.00;;;;;;5002254;28;20053;-68
2022/07/15 02:35:22;;;;;;;6.65;0.50;;;10.80;79.30;;;;;;5007821;28;20084;-68
2022/07/15 02:37:48;;;;;;;5.85;0.70;;;10.80;79.40;;;;;;4988209;28;20362;-68
2022/07/15 02:40:13;;;;;;;4.57;0.70;;;10.70;79.30;;;;;;5003150;28;20392;-68
2022/07/15 02:42:39;;;;;;;4.80;1.17;;;10.70;79.50;;;;;;5005200;28;20030;-68
2022/07/15 02:45:06;;;;;;;3.67;1.00;;;10.60;79.80;;;;;;4986272;28;20044;-68
2022/07/15 02:47:32;;;;;;;5.05;0.70;;;10.60;79.90;;;;;;5004155;28;20109;-68
2022/07/15 02:49:58;;;;;;;5.33;0.60;;;10.50;80.10;;;;;;5005162;28;20588;-68
2022/07/15 02:52:24;;;;;;;4.90;1.07;;;10.50;80.20;;;;;;5005055;28;20042;-68
2022/07/15 02:54:49;;;;;;;3.90;0.50;;;10.50;80.30;;;;;;5000396;28;20121;-68
2022/07/15 02:57:15;;;;;;;5.20;1.10;;;10.50;80.20;;;;;;4971049;28;20098;-68
2022/07/15 02:59:41;;;;;;;3.53;0.40;;;10.50;79.80;;;;;;4981105;28;20056;-67
2022/07/15 03:02:06;;;;;;;3.53;0.60;;;10.50;80.20;;;;;;4982284;28;20123;-67
2022/07/15 03:04:32;;;;;;;4.50;0.70;;;10.40;80.20;;;;;;5003772;28;20457;-67
2022/07/15 03:06:58;;;;;;;2.63;0.47;;;10.40;79.90;;;;;;5004224;28;20054;-67
2022/07/15 03:09:23;;;;;;;3.00;0.70;;;10.40;80.10;;;;;;5004480;28;20506;-67
2022/07/15 03:11:49;;;;;;;3.57;0.90;;;10.30;80.20;;;;;;5004503;28;20045;-67
2022/07/15 03:14:15;;;;;;;3.90;0.70;;;10.30;80.10;;;;;;5003773;28;20038;-67
2022/07/15 03:16:41;;;;;;;2.53;0.70;;;10.20;80.40;;;;;;5000762;28;20081;-67
2022/07/15 03:19:08;;;;;;;3.05;0.80;;;10.20;80.50;;;;;;5003775;28;20452;-67
2022/07/15 03:21:34;;;;;;;3.65;0.98;;;10.10;80.80;;;;;;4985247;28;20046;-67
2022/07/15 03:23:59;;;;;;;1.53;0.53;;;10.10;80.40;;;;;;4986492;28;20265;-67
2022/07/15 03:26:25;;;;;;;4.13;0.63;;;10.10;80.80;;;;;;4984520;28;20053;-67
2022/07/15 03:28:51;;;;;;;1.43;0.67;;;10.00;80.40;;;;;;5006523;28;20042;-67
2022/07/15 03:31:17;;;;;;;3.70;0.47;;;10.00;80.40;;;;;;5007663;28;20422;-67
2022/07/15 03:33:43;;;;;;;2.92;0.60;;;10.00;80.20;;;;;;5007248;28;20064;-67
2022/07/15 03:36:08;;;;;;;5.03;0.83;;;10.00;80.10;;;;;;5004190;28;20046;-67
2022/07/15 03:38:34;;;;;;;3.10;0.60;;;9.90;80.20;;;;;;5007668;28;20037;-67
2022/07/15 03:41:00;;;;;;;2.90;0.63;;;9.90;80.00;;;;;;4991989;28;20042;-67
2022/07/15 03:43:29;;;;;;;1.50;0.40;;;9.90;80.00;;;;;;5008296;28;20046;-67
2022/07/15 03:45:55;;;;;;;1.52;0.50;;;9.90;79.90;;;;;;4975294;28;20131;-67
2022/07/15 03:48:22;;;;;;;1.73;0.50;;;9.90;79.90;;;;;;5008152;28;20085;-67
2022/07/15 03:50:47;;;;;;;1.73;0.30;;;9.90;79.80;;;;;;4988967;28;20046;-67
2022/07/15 03:53:13;;;;;;;2.87;0.50;;;9.90;79.80;;;;;;5007921;28;20064;-67
2022/07/15 03:55:39;;;;;;;1.40;0.40;;;9.90;79.70;;;;;;5007084;28;20096;-67
2022/07/15 03:58:05;;;;;;;1.97;0.40;;;9.90;79.70;;;;;;5004638;28;20044;-67
2022/07/15 04:00:31;;;;;;;4.93;0.40;;;9.90;79.40;;;;;;4985115;28;20050;-67
2022/07/15 04:02:57;;;;;;;6.13;0.67;;;9.90;79.50;;;;;;4991656;28;20148;-67
2022/07/15 04:05:23;;;;;;;2.57;0.50;;;10.00;79.50;;;;;;5007567;28;20480;-67
2022/07/15 04:07:49;;;;;;;3.30;0.63;;;10.00;79.60;;;;;;5008115;28;20288;-67
2022/07/15 04:10:15;;;;;;;1.47;0.53;;;10.00;79.40;;;;;;5000361;28;20478;-68
2022/07/15 04:12:41;;;;;;;3.35;0.80;;;10.10;79.60;;;;;;4999990;28;20049;-67
2022/07/15 04:15:08;;;;;;;3.23;1.03;;;10.10;79.70;;;;;;5005186;28;20046;-68
2022/07/15 04:17:34;;;;;;;1.38;0.47;;;10.20;79.70;;;;;;5002223;28;20486;-68
2022/07/15 04:20:00;;;;;;;2.60;0.25;;;10.40;79.40;;;;;;5008018;28;20475;-68
2022/07/15 04:22:26;;;;;;;1.63;0.40;;;10.50;79.30;;;;;;5008067;28;20048;-68
2022/07/15 04:24:51;;;;;;;1.37;0.27;;;10.60;79.10;;;;;;4987337;28;20085;-68
2022/07/15 04:27:17;;;;;;;2.73;0.40;;;10.70;78.70;;;;;;4990904;28;20053;-68
2022/07/15 04:29:43;;;;;;;4.03;0.50;;;10.80;78.40;;;;;;5007247;28;20033;-67
2022/07/15 04:32:09;;;;;;;4.37;0.53;;;10.90;78.30;;;;;;5007496;28;20053;-67
2022/07/15 04:34:35;;;;;;;1.93;0.73;;;11.00;78.00;;;;;;4988333;28;20050;-67
2022/07/15 04:37:00;;;;;;;2.73;0.40;;;11.10;77.80;;;;;;5006746;28;20064;-67
2022/07/15 04:39:26;;;;;;;3.50;0.97;;;11.20;77.60;;;;;;4987296;28;20036;-67
2022/07/15 04:41:52;;;;;;;1.93;0.20;;;11.20;77.40;;;;;;5008180;28;20046;-68
2022/07/15 04:44:18;;;;;;;2.50;0.53;;;11.30;77.40;;;;;;5004957;28;20077;-68
2022/07/15 04:46:44;;;;;;;1.67;0.50;;;11.30;77.30;;;;;;5006913;28;20034;-68
2022/07/15 04:51:54;;;;;;;1.75;0.40;;;11.40;77.10;;;;;;5006256;28;20854;-67
2022/07/15 04:54:19;;;;;;;2.80;0.40;;;11.60;77.20;;;;;;5006379;28;20080;-68
2022/07/15 04:56:45;;;;;;;1.60;0.30;;;11.70;77.10;;;;;;4990546;28;20042;-67
2022/07/15 04:59:11;;;;;;;1.00;0.30;;;11.80;77.00;;;;;;5005958;28;20056;-67
2022/07/15 05:01:37;;;;;;;1.70;0.57;;;11.90;76.80;;;;;;5006361;28;20046;-67
2022/07/15 05:04:02;;;;;;;1.27;0.50;;;12.10;76.60;;;;;;5006112;28;20299;-67
2022/07/15 05:06:28;;;;;;;1.27;0.30;;;12.20;76.50;;;;;;4990723;28;20065;-67
2022/07/15 05:08:54;;;;;;;1.57;0.40;;;12.40;76.40;;;;;;5006887;28;20053;-67
2022/07/15 05:11:20;;;;;;;3.20;0.30;;;12.40;76.30;;;;;;5006641;28;20510;-67
2022/07/15 05:13:45;;;;;;;2.70;0.67;;;12.60;76.20;;;;;;5005768;28;20053;-67
2022/07/15 05:16:11;;;;;;;1.90;0.20;;;12.70;76.20;;;;;;5003742;28;20176;-67
2022/07/15 05:18:37;;;;;;;1.43;0.20;;;12.80;75.90;;;;;;4989100;28;20042;-67
2022/07/15 05:21:03;;;;;;;1.33;0.40;;;12.90;75.60;;;;;;5005979;28;20041;-67
2022/07/15 05:23:29;;;;;;;2.13;0.40;;;13.10;75.40;;;;;;4983953;28;20042;-67
2022/07/15 05:25:55;;;;;;;4.23;0.30;;;13.20;74.80;;;;;;5005706;28;20281;-67
2022/07/15 05:28:20;;;;;;;1.93;0.40;;;13.40;74.40;;;;;;5006861;28;20057;-67
2022/07/15 05:30:46;;;;;;;5.43;0.40;;;13.60;74.00;;;;;;4957324;28;20048;-67
2022/07/15 05:33:15;;;;;;;2.43;0.37;;;13.70;73.40;;;;;;5002324;28;20120;-67
2022/07/15 05:35:41;;;;;;;4.23;0.50;;;13.80;73.50;;;;;;4988602;28;20042;-68
2022/07/15 05:38:07;;;;;;;0.70;0.20;;;13.90;72.60;;;;;;5006148;28;20293;-67
2022/07/15 05:40:33;;;;;;;3.03;0.33;;;14.00;73.10;;;;;;5006288;28;20041;-67
2022/07/15 05:42:59;;;;;;;1.80;0.40;;;14.20;73.00;;;;;;5004537;28;20048;-68
2022/07/15 05:45:25;;;;;;;1.13;0.40;;;14.40;72.80;;;;;;5001985;28;20292;-67
2022/07/15 05:47:51;;;;;;;0.60;0.30;;;14.80;72.70;;;;;;4988617;28;20042;-67
2022/07/15 05:50:18;;;;;;;0.67;0.30;;;15.40;71.40;;;;;;5004719;28;20391;-68
2022/07/15 05:52:44;;;;;;;0.67;0.20;;;15.80;70.60;;;;;;5006269;28;20320;-67
2022/07/15 05:55:10;;;;;;;1.97;0.30;;;16.00;70.30;;;;;;4956127;28;20320;-67
2022/07/15 05:57:36;;;;;;;0.70;0.20;;;16.20;69.80;;;;;;5003940;28;20041;-67
2022/07/15 06:00:03;;;;;;;0.97;0.20;;;16.60;69.40;;;;;;5005175;28;20284;-67
2022/07/15 06:02:30;;;;;;;4.00;0.40;;;17.30;67.60;;;;;;5003835;28;20046;-67
2022/07/15 06:04:56;;;;;;;1.63;0.20;;;17.50;66.70;;;;;;5020730;28;20387;-68
2022/07/15 06:07:22;;;;;;;1.17;0.30;;;17.50;66.40;;;;;;4988981;28;20380;-68
2022/07/15 06:09:50;;;;;;;0.40;0.10;;;17.80;65.50;;;;;;5020745;28;20038;-68
2022/07/15 06:12:17;;;;;;;1.77;0.20;;;18.40;64.40;;;;;;5004415;28;20127;-68
2022/07/15 06:14:43;;;;;;;4.37;0.30;;;19.30;62.10;;;;;;4987722;28;20384;-68
2022/07/15 06:17:09;;;;;;;2.60;0.30;;;20.20;57.60;;;;;;4988949;28;20364;-68
2022/07/15 06:19:34;;;;;;;1.63;0.30;;;20.90;57.20;;;;;;4973589;28;20037;-68
2022/07/15 06:22:00;;;;;;;1.33;0.20;;;21.20;56.00;;;;;;4998707;28;20041;-68
2022/07/15 06:24:27;;;;;;;1.10;0.20;;;21.20;55.90;;;;;;5005281;28;20042;-68
2022/07/15 06:26:52;;;;;;;2.50;0.40;;;21.40;55.60;;;;;;5005308;28;20398;-68
2022/07/15 06:29:19;;;;;;;2.23;0.20;;;21.80;54.70;;;;;;5004363;28;20296;-68
2022/07/15 06:31:45;;;;;;;0.80;0.40;;;21.90;54.50;;;;;;5003867;28;20639;-68
2022/07/15 06:34:10;;;;;;;1.10;0.10;;;21.90;53.80;;;;;;5015290;28;20053;-68
2022/07/15 06:36:36;;;;;;;0.93;0.10;;;21.50;54.10;;;;;;4984119;28;20479;-68
2022/07/15 06:39:03;;;;;;;3.57;0.50;;;21.30;54.70;;;;;;4991877;28;20092;-68
2022/07/15 06:41:28;;;;;;;1.33;0.20;;;21.30;54.80;;;;;;4992920;28;20034;-68
2022/07/15 06:43:54;;;;;;;2.17;0.30;;;21.50;54.70;;;;;;4990772;28;20069;-68
2022/07/15 06:46:20;;;;;;;2.30;0.67;;;21.70;54.00;;;;;;4975574;28;20042;-68
2022/07/15 06:48:46;;;;;;;1.53;0.17;;;21.90;54.00;;;;;;4993140;28;20123;-68
2022/07/15 06:51:11;;;;;;;3.13;0.40;;;22.00;53.80;;;;;;4972189;28;20510;-68
2022/07/15 06:53:37;;;;;;;1.87;0.10;;;21.80;53.00;;;;;;5004860;28;20038;-68
2022/07/15 06:56:04;;;;;;;1.23;0.20;;;21.70;53.50;;;;;;4988306;28;20037;-68
2022/07/15 06:58:29;;;;;;;1.53;0.13;;;21.60;53.60;;;;;;4985846;28;20036;-68
2022/07/15 07:00:55;;;;;;;2.10;0.20;;;21.50;53.80;;;;;;5002423;28;20555;-68
2022/07/15 07:03:20;;;;;;;1.97;0.10;;;21.40;53.10;;;;;;4990552;28;20537;-68
2022/07/15 07:05:46;;;;;;;1.03;0.10;;;21.50;53.40;;;;;;4992220;28;20057;-68
2022/07/15 07:08:12;;;;;;;2.70;0.40;;;21.50;52.80;;;;;;5006546;28;20049;-68
2022/07/15 07:10:38;;;;;;;2.10;0.30;;;21.10;51.90;;;;;;5005112;28;20048;-68
2022/07/15 07:13:03;;;;;;;1.03;0.20;;;20.30;53.30;;;;;;5002502;28;20050;-68
2022/07/15 07:15:29;;;;;;;1.83;0.20;;;19.70;55.00;;;;;;5005829;28;20476;-68
2022/07/15 07:17:55;;;;;;;2.57;0.30;;;19.20;55.30;;;;;;5008529;28;20034;-68
2022/07/15 07:20:21;;;;;;;3.37;0.20;;;19.10;56.40;;;;;;5008920;28;20132;-68
2022/07/15 07:22:46;;;;;;;2.10;0.20;;;19.30;56.00;;;;;;4980517;28;20038;-68
2022/07/15 07:25:12;;;;;;;1.43;0.10;;;19.50;56.30;;;;;;5007896;28;20041;-68
2022/07/15 07:27:38;;;;;;;1.70;0.10;;;19.60;56.10;;;;;;5008025;28;20037;-68
2022/07/15 07:30:04;;;;;;;12.00;0.50;;;19.70;55.60;;;;;;5008188;28;20030;-68
2022/07/15 07:32:31;;;;;;;0.40;0.10;;;19.50;56.00;;;;;;5008258;28;20037;-68
2022/07/15 07:34:57;;;;;;;2.20;0.30;;;19.30;55.90;;;;;;5004868;28;20047;-68
2022/07/15 07:37:22;;;;;;;2.20;0.20;;;18.90;56.20;;;;;;5007955;28;20379;-68
2022/07/15 07:39:49;;;;;;;2.80;0.30;;;18.70;56.50;;;;;;5005344;28;20038;-68
2022/07/15 07:42:16;;;;;;;1.83;0.17;;;18.50;57.40;;;;;;5002185;28;20501;-68
2022/07/15 07:44:45;;;;;;;1.47;0.10;;;18.70;58.10;;;;;;5007678;28;20288;-68
2022/07/15 07:47:10;;;;;;;1.77;0.30;;;19.00;57.10;;;;;;5007972;28;20296;-68
2022/07/15 07:49:36;;;;;;;2.00;0.20;;;19.20;56.40;;;;;;5005489;28;20042;-68
2022/07/15 07:52:03;;;;;;;0.77;0.10;;;19.30;57.00;;;;;;5006538;28;20124;-68
2022/07/15 07:54:29;;;;;;;1.03;0.10;;;19.40;56.60;;;;;;5007357;28;20121;-68
2022/07/15 07:56:55;;;;;;;1.40;0.10;;;19.50;55.80;;;;;;5009196;28;20100;-68
2022/07/15 07:59:21;;;;;;;2.23;0.10;;;19.60;55.90;;;;;;5007439;28;20289;-68
2022/07/15 08:01:47;;;;;;;1.83;0.10;;;19.60;55.60;;;;;;5007534;28;20410;-68
2022/07/15 08:04:14;;;;;;;1.97;0.10;;;19.80;55.80;;;;;;5003859;28;20057;-68
2022/07/15 08:06:40;;;;;;;1.60;0.10;;;19.70;55.00;;;;;;4991318;28;20053;-68
2022/07/15 08:09:06;;;;;;;0.73;0.10;;;19.40;55.00;;;;;;5004460;28;20038;-68
2022/07/15 08:11:32;;;;;;;1.53;0.10;;;19.20;55.80;;;;;;5003995;28;20293;-68
2022/07/15 08:13:57;;;;;;;1.10;0.10;;;19.40;56.00;;;;;;4990565;28;20042;-68
2022/07/15 08:16:23;;;;;;;1.17;0.10;;;19.60;55.30;;;;;;5007592;28;20103;-68
2022/07/15 08:18:49;;;;;;;1.20;0.10;;;19.70;54.40;;;;;;5007359;28;20033;-68
2022/07/15 08:21:15;;;;;;;0.53;0.10;;;19.60;54.10;;;;;;4996922;28;20124;-68
2022/07/15 08:23:40;;;;;;;1.00;0.10;;;19.50;54.60;;;;;;4996881;28;20532;-68
2022/07/15 08:26:07;;;;;;;1.67;0.10;;;19.40;55.30;;;;;;4986489;28;20034;-68
2022/07/15 08:28:33;;;;;;;1.37;0.20;;;19.30;55.00;;;;;;4991635;28;20323;-68
2022/07/15 08:30:59;;;;;;;1.03;0.10;;;19.20;55.40;;;;;;5006502;28;20045;-68
2022/07/15 08:33:25;;;;;;;1.97;0.27;;;19.10;55.90;;;;;;4975038;28;20045;-68
2022/07/15 08:35:50;;;;;;;1.33;0.10;;;19.10;56.50;;;;;;5006670;28;20366;-68
2022/07/15 08:38:16;;;;;;;2.13;0.17;;;19.20;55.60;;;;;;4983060;28;20088;-68
2022/07/15 08:40:43;;;;;;;1.57;0.10;;;19.20;55.40;;;;;;5007288;28;20585;-68
2022/07/15 08:43:10;;;;;;;2.30;0.27;;;19.30;56.00;;;;;;5004846;28;20128;-68
2022/07/15 08:45:38;;;;;;;2.43;0.30;;;19.60;56.50;;;;;;5002608;28;20289;-68
2022/07/15 08:48:05;;;;;;;2.50;0.10;;;19.90;53.80;;;;;;4989704;28;20292;-68
2022/07/15 08:50:32;;;;;;;2.13;0.20;;;19.80;52.90;;;;;;5006817;28;20745;-68
2022/07/15 08:52:57;;;;;;;1.83;0.00;;;19.70;53.50;;;;;;5001741;28;20034;-68
2022/07/15 08:55:23;;;;;;;2.20;0.10;;;19.80;53.60;;;;;;4970095;28;20285;-68
2022/07/15 08:57:52;;;;;;;1.40;0.10;;;20.00;53.10;;;;;;5000232;28;20193;-68
2022/07/15 09:00:19;;;;;;;1.60;0.30;;;20.20;53.40;;;;;;4985745;28;20041;-68
2022/07/15 09:02:46;;;;;;;1.83;0.10;;;20.40;53.70;;;;;;4994732;28;20720;-68
2022/07/15 09:05:23;;;;;;;0.97;0.10;;;20.50;52.70;;;;;;4996494;28;20093;-68
2022/07/15 09:07:59;;;;;;;0.87;0.10;;;20.30;52.80;;;;;;5000759;28;20077;-68
2022/07/15 09:10:40;;;;;;;1.27;0.10;;;20.30;53.50;;;;;;5001196;28;20589;-68
2022/07/15 09:13:05;;;;;;;1.27;0.10;;;20.20;53.60;;;;;;4995858;28;20064;-68
2022/07/15 09:15:37;;;;;;;0.73;0.13;;;19.90;53.80;;;;;;4997386;28;20041;-67
2022/07/15 09:18:15;;;;;;;2.33;0.30;;;19.80;54.20;;;;;;5013185;28;20038;-68
2022/07/15 09:20:42;;;;;;;1.17;0.10;;;19.70;53.90;;;;;;5001587;28;20035;-67
2022/07/15 09:23:09;;;;;;;0.90;0.00;;;19.80;54.20;;;;;;4982142;28;20495;-68
2022/07/15 09:25:36;;;;;;;0.83;0.10;;;20.10;54.40;;;;;;4993915;28;20041;-68
2022/07/15 09:28:07;;;;;;;2.97;0.03;;;20.40;53.10;;;;;;4979332;28;20125;-68
2022/07/15 09:33:40;;;;;;;1.23;0.20;;;21.00;51.80;;;;;;5010505;28;20058;-68
2022/07/15 09:36:22;;;;;;;0.43;0.03;;;21.00;51.20;;;;;;4994903;28;20455;-68
2022/07/15 09:38:48;;;;;;;1.10;0.17;;;20.70;50.90;;;;;;5002654;28;20040;-68
2022/07/15 09:41:27;;;;;;;2.03;0.10;;;20.60;51.70;;;;;;5002695;28;20065;-68
2022/07/15 09:44:00;;;;;;;1.37;0.57;;;20.70;52.00;;;;;;4986970;28;20540;-68
2022/07/15 09:46:49;;;;;;;1.13;0.10;;;20.90;51.40;;;;;;5014552;28;20498;-68
2022/07/15 09:49:27;;;;;;;0.67;0.10;;;21.00;50.80;;;;;;4990917;28;20152;-68
2022/07/15 09:51:57;;;;;;;1.27;0.10;;;20.90;50.90;;;;;;5015207;28;20037;-68
2022/07/15 09:54:31;;;;;;;0.97;0.20;;;20.90;51.20;;;;;;5004826;28;20033;-68
2022/07/15 09:57:02;;;;;;;2.28;0.10;;;20.80;51.80;;;;;;5020862;28;20064;-68
2022/07/15 09:59:29;;;;;;;1.23;0.10;;;20.90;51.10;;;;;;5005132;28;20120;-68
2022/07/15 10:01:58;;;;;;;1.33;0.10;;;21.00;50.20;;;;;;5002536;28;20034;-68
2022/07/15 10:04:26;;;;;;;2.17;0.10;;;21.20;50.20;;;;;;5004180;28;20136;-68
2022/07/15 10:06:54;;;;;;;3.13;0.30;;;21.40;49.60;;;;;;4987300;28;20045;-68
2022/07/15 10:09:24;;;;;;;0.93;0.10;;;21.60;50.90;;;;;;5005390;28;20084;-68
2022/07/15 10:11:53;;;;;;;1.40;0.10;;;21.70;50.60;;;;;;5005470;28;20406;-68
2022/07/15 10:14:43;;;;;;;1.40;0.10;;;21.60;51.20;;;;;;5017943;28;20112;-68
2022/07/15 10:17:40;;;;;;;0.50;0.10;;;21.40;50.70;;;;;;5004533;28;20494;-68
2022/07/15 10:20:28;;;;;;;0.60;0.10;;;21.40;51.60;;;;;;5002043;28;20034;-68
2022/07/15 10:23:13;;;;;;;1.30;0.10;;;21.60;51.20;;;;;;4994077;28;20049;-69
2022/07/15 10:26:08;;;;;;;1.85;0.10;;;21.90;49.50;;;;;;4998892;28;20037;-68
2022/07/15 10:28:55;;;;;;;0.98;0.20;;;22.20;48.70;;;;;;4993526;28;20042;-68
2022/07/15 10:31:28;;;;;;;1.50;0.10;;;22.50;50.00;;;;;;4988712;28;20038;-68
2022/07/15 10:34:02;;;;;;;0.80;0.13;;;22.40;49.00;;;;;;5010408;28;20050;-68
2022/07/15 10:36:40;;;;;;;;;;;22.30;49.50;;;;;;4996349;28;20794;-68
2022/07/15 10:39:06;;;;;;;0.93;0.17;;;22.10;49.90;;;;;;5004549;28;19972;-68
2022/07/15 10:41:48;;;;;;;0.73;0.10;;;21.80;51.20;;;;;;4992194;28;20077;-68
2022/07/15 10:44:14;;;;;;;1.23;0.10;;;21.60;50.10;;;;;;5010017;28;20034;-68
2022/07/15 10:46:39;;;;;;;1.87;0.20;;;21.60;50.70;;;;;;4960450;28;20041;-69
2022/07/15 10:49:05;;;;;;;1.23;0.10;;;21.60;50.90;;;;;;4972785;28;20046;-69
2022/07/15 10:51:36;;;;;;;1.50;0.27;;;21.30;51.20;;;;;;4995428;28;20042;-69
2022/07/15 10:54:04;;;;;;;2.17;0.27;;;21.10;51.50;;;;;;4995951;28;20177;-68
2022/07/15 10:56:41;;;;;;;1.77;0.10;;;21.00;51.60;;;;;;4999908;28;20506;-68
2022/07/15 10:59:19;;;;;;;0.60;0.20;;;20.90;52.30;;;;;;4991960;28;20073;-68
2022/07/15 11:01:48;;;;;;;1.33;0.10;;;20.80;52.50;;;;;;4995309;28;20140;-68
2022/07/15 11:04:17;;;;;;;1.43;0.20;;;20.80;53.10;;;;;;4991450;28;20062;-68
2022/07/15 11:07:02;;;;;;;1.67;0.20;;;20.90;53.30;;;;;;4991433;28;20082;-68
2022/07/15 11:09:46;;;;;;;2.15;0.30;;;20.90;53.40;;;;;;4990893;28;20053;-68
2022/07/15 11:12:12;;;;;;;2.50;0.30;;;21.00;53.70;;;;;;5009582;28;20050;-68
2022/07/15 11:14:45;;;;;;;4.03;0.47;;;21.20;53.10;;;;;;4990586;28;20050;-68
2022/07/15 11:17:13;;;;;;;1.97;0.57;;;21.40;52.80;;;;;;5011935;28;20367;-68
2022/07/15 11:19:39;;;;;;;1.00;0.10;;;21.50;51.70;;;;;;4982368;28;20038;-68
2022/07/15 11:22:08;;;;;;;1.93;0.30;;;21.50;51.60;;;;;;5000631;28;20046;-68
2022/07/15 11:24:35;;;;;;;2.70;0.30;;;21.60;51.40;;;;;;4997554;28;20046;-69
2022/07/15 11:27:01;;;;;;;1.00;0.30;;;21.50;51.60;;;;;;5016227;28;20061;-69
2022/07/15 11:29:40;;;;;;;1.03;0.20;;;21.40;52.20;;;;;;4980309;28;20034;-69
2022/07/15 11:32:07;;;;;;;2.10;0.30;;;21.20;52.30;;;;;;4996639;28;20438;-69
2022/07/15 11:34:48;;;;;;;1.80;0.20;;;21.20;53.30;;;;;;4983275;28;20466;-69
2022/07/15 11:37:18;;;;;;;1.67;0.30;;;21.10;53.40;;;;;;5002759;28;20719;-69
2022/07/15 11:44:29;;;;;;;1.47;0.30;;;21.10;53.20;;;;;;5003812;28;20494;-69
2022/07/15 11:45:42;;;;;;;2.90;0.30;;;21.10;53.10;;;;;;4988811;28;20049;-69
2022/07/15 11:48:08;;;;;;;1.53;0.33;;;21.20;52.60;;;;;;5005174;28;20038;-69
2022/07/15 11:50:48;;;;;;;2.93;0.20;;;21.10;52.30;;;;;;5005087;28;20092;-69
2022/07/15 11:53:15;;;;;;;2.13;0.30;;;20.90;52.00;;;;;;5012872;28;20077;-69
2022/07/15 11:55:56;;;;;;;1.67;0.40;;;20.70;52.80;;;;;;5007585;28;20049;-69
2022/07/15 11:58:43;;;;;;;1.70;0.20;;;20.80;53.40;;;;;;5005832;28;20042;-69
2022/07/15 12:01:15;;;;;;;1.23;0.30;;;21.00;53.70;;;;;;4991909;28;20042;-69
2022/07/15 12:03:49;;;;;;;2.07;0.30;;;21.40;52.90;;;;;;5007784;28;20422;-69
2022/07/15 12:06:22;;;;;;;3.03;0.40;;;21.50;52.90;;;;;;4999943;28;20553;-69
2022/07/15 12:08:53;;;;;;;1.77;0.30;;;21.40;53.50;;;;;;4999450;28;20074;-69
2022/07/15 12:11:36;;;;;;;2.53;0.50;;;21.40;53.40;;;;;;5002254;28;20360;-69
2022/07/15 12:14:09;;;;;;;1.90;0.30;;;21.30;53.90;;;;;;5005923;28;20092;-69
2022/07/15 12:16:47;;;;;;;1.67;0.40;;;21.30;53.50;;;;;;5007614;28;20041;-69
2022/07/15 12:19:15;;;;;;;3.73;0.50;;;21.20;54.20;;;;;;5002137;28;20053;-69
2022/07/15 12:21:42;;;;;;;3.10;0.40;;;21.20;53.70;;;;;;5007393;28;20119;-69
2022/07/15 12:24:09;;;;;;;1.40;0.43;;;21.20;53.50;;;;;;5007255;28;20506;-69
2022/07/15 12:26:41;;;;;;;2.60;0.50;;;21.40;53.50;;;;;;4984482;28;20042;-69
2022/07/15 12:29:09;;;;;;;1.47;0.47;;;21.30;54.40;;;;;;4986930;28;20494;-69
2022/07/15 12:31:37;;;;;;;1.80;0.30;;;21.30;54.50;;;;;;5007042;28;20128;-69
2022/07/15 12:34:03;;;;;;;2.57;0.40;;;21.20;52.80;;;;;;5001148;28;20042;-69
2022/07/15 12:36:33;;;;;;;1.60;0.40;;;20.90;52.50;;;;;;5006602;28;20045;-69
2022/07/15 12:39:18;;;;;;;3.23;0.60;;;20.80;54.00;;;;;;5007875;28;20402;-69
2022/07/15 12:41:45;;;;;;;1.77;0.60;;;21.00;54.80;;;;;;5006694;28;20041;-69
2022/07/15 12:44:11;;;;;;;2.07;0.60;;;21.30;54.70;;;;;;5006728;28;20057;-69
2022/07/15 12:46:56;;;;;;;1.50;0.60;;;21.60;53.30;;;;;;5016774;28;20049;-69
2022/07/15 12:49:41;;;;;;;;;;;21.80;52.40;;;;;;5004349;28;20076;-69
2022/07/15 12:52:30;;;;;;;1.43;0.40;;;22.00;52.40;;;;;;4996273;28;19968;-69
2022/07/15 12:54:56;;;;;;;3.60;0.70;;;22.20;51.70;;;;;;4984854;28;20053;-69
2022/07/15 12:57:28;;;;;;;1.30;0.50;;;22.20;51.10;;;;;;4992268;28;20422;-69
2022/07/15 12:59:59;;;;;;;2.93;0.70;;;22.10;51.20;;;;;;5006419;28;20455;-69
2022/07/15 13:02:27;;;;;;;1.23;0.40;;;22.00;51.40;;;;;;5005112;28;20137;-69
2022/07/15 13:04:52;;;;;;;2.13;0.60;;;21.90;52.00;;;;;;4983384;28;20066;-69